Time,TemperatureF,DewpointF,PressureIn,WindDirection,WindDirectionDegrees,WindSpeedMPH,WindSpeedGustMPH,Humidity,HourlyPrecipIn,Conditions,Clouds,dailyrainin,SoftwareType,DateUTC
2013-08-11 00:01:00,78.0,75.0,30.12,ESE,121,2.0,5.0,91,99.99,,,-99.99,,2013-08-11 04:01:00,
2013-08-11 00:12:00,77.0,75.0,30.12,South,169,2.0,4.0,93,99.99,,,-99.99,,2013-08-11 04:12:00,
2013-08-11 00:22:00,77.0,75.0,30.12,SSE,148,1.0,5.0,95,99.99,,,-99.99,,2013-08-11 04:22:00,
2013-08-11 00:32:00,77.0,75.0,30.12,SSE,148,1.0,5.0,95,99.99,,,-99.99,,2013-08-11 04:32:00,
2013-08-11 00:43:00,77.0,75.0,30.12,SSE,148,1.0,5.0,95,99.99,,,-99.99,,2013-08-11 04:43:00,
2013-08-11 00:53:00,77.0,76.0,30.12,SE,129,1.0,3.0,97,99.99,,,-99.99,,2013-08-11 04:53:00,
2013-08-11 01:02:00,76.0,75.0,30.13,SE,141,2.0,4.0,98,99.99,,,-99.99,,2013-08-11 05:02:00,
2013-08-11 01:25:00,76.0,76.0,30.13,SE,141,0.0,2.0,100,99.99,,,-99.99,,2013-08-11 05:25:00,
2013-08-11 01:36:00,76.0,76.0,30.13,SE,136,0.0,2.0,100,99.99,,,-99.99,,2013-08-11 05:36:00,
2013-08-11 01:46:00,76.0,76.0,30.13,North,0,0.0,0.0,100,99.99,,,-99.99,,2013-08-11 05:46:00,
2013-08-11 01:54:00,76.0,76.0,30.14,North,0,0.0,0.0,100,99.99,,,-99.99,,2013-08-11 05:54:00,
2013-08-11 02:04:00,75.0,75.0,30.13,North,0,0.0,0.0,100,99.99,,,-99.99,,2013-08-11 06:04:00,
2013-08-11 02:17:00,75.0,75.0,30.13,North,0,0.0,0.0,100,99.99,,,-99.99,,2013-08-11 06:17:00,
2013-08-11 02:26:00,75.0,75.0,30.12,ESE,105,0.0,3.0,100,99.99,,,-99.99,,2013-08-11 06:26:00,
2013-08-11 02:36:00,75.0,75.0,30.12,North,0,0.0,0.0,100,99.99,,,-99.99,,2013-08-11 06:36:00,
2013-08-11 02:48:00,75.0,75.0,30.12,North,0,0.0,0.0,100,99.99,,,-99.99,,2013-08-11 06:48:00,
2013-08-11 02:55:00,74.0,74.0,30.12,North,0,0.0,0.0,100,99.99,,,-99.99,,2013-08-11 06:55:00,
2013-08-11 03:06:00,74.0,74.0,30.12,North,0,0.0,0.0,100,99.99,,,-99.99,,2013-08-11 07:06:00,
2013-08-11 03:15:00,74.0,74.0,30.12,North,0,0.0,0.0,100,99.99,,,-99.99,,2013-08-11 07:15:00,
2013-08-11 03:24:00,73.0,73.0,30.11,North,0,0.0,0.0,100,99.99,,,-99.99,,2013-08-11 07:24:00,
2013-08-11 03:36:00,74.0,74.0,30.11,NNE,24,0.0,0.0,100,99.99,,,-99.99,,2013-08-11 07:36:00,
2013-08-11 03:44:00,74.0,74.0,30.11,ESE,117,2.0,4.0,100,99.99,,,-99.99,,2013-08-11 07:44:00,
2013-08-11 03:54:00,75.0,75.0,30.11,ESE,117,3.0,4.0,100,99.99,,,-99.99,,2013-08-11 07:54:00,
2013-08-11 04:09:00,75.0,75.0,30.11,ESE,117,3.0,4.0,100,99.99,,,-99.99,,2013-08-11 08:09:00,
2013-08-11 04:18:00,74.0,74.0,30.11,North,0,0.0,0.0,100,99.99,,,-99.99,,2013-08-11 08:18:00,
2013-08-11 04:25:00,74.0,74.0,30.11,North,0,0.0,0.0,100,99.99,,,-99.99,,2013-08-11 08:25:00,
2013-08-11 04:35:00,73.0,73.0,30.11,North,0,0.0,0.0,100,99.99,,,-99.99,,2013-08-11 08:35:00,
2013-08-11 04:47:00,73.0,73.0,30.11,North,0,0.0,0.0,100,99.99,,,-99.99,,2013-08-11 08:47:00,
2013-08-11 04:56:00,73.0,73.0,30.10,North,0,0.0,0.0,100,99.99,,,-99.99,,2013-08-11 08:56:00,
2013-08-11 05:15:00,73.0,73.0,30.10,North,0,0.0,0.0,100,99.99,,,-99.99,,2013-08-11 09:15:00,
2013-08-11 05:28:00,73.0,73.0,30.11,North,0,0.0,0.0,100,99.99,,,-99.99,,2013-08-11 09:28:00,
2013-08-11 05:35:00,72.0,72.0,30.11,North,0,0.0,0.0,100,99.99,,,-99.99,,2013-08-11 09:35:00,
2013-08-11 05:43:00,72.0,72.0,30.11,North,0,0.0,0.0,100,99.99,,,-99.99,,2013-08-11 09:43:00,
2013-08-11 05:57:00,72.0,72.0,30.12,North,0,0.0,0.0,100,99.99,,,-99.99,,2013-08-11 09:57:00,
2013-08-11 06:05:00,72.0,72.0,30.12,North,0,0.0,0.0,100,99.99,,,-99.99,,2013-08-11 10:05:00,
2013-08-11 06:28:00,72.0,72.0,30.12,North,0,0.0,0.0,100,99.99,,,-99.99,,2013-08-11 10:28:00,
2013-08-11 06:35:00,72.0,72.0,30.12,North,0,0.0,0.0,100,99.99,,,-99.99,,2013-08-11 10:35:00,
2013-08-11 06:45:00,72.0,72.0,30.12,North,0,0.0,0.0,100,99.99,,,-99.99,,2013-08-11 10:45:00,
2013-08-11 06:55:00,72.0,72.0,30.12,North,0,0.0,0.0,100,99.99,,,-99.99,,2013-08-11 10:55:00,
2013-08-11 07:06:00,72.0,72.0,30.12,North,0,0.0,0.0,100,99.99,,,-99.99,,2013-08-11 11:06:00,
2013-08-11 07:14:00,73.0,73.0,30.12,ESE,113,1.0,3.0,100,99.99,,,-99.99,,2013-08-11 11:14:00,
2013-08-11 07:24:00,74.0,74.0,30.12,North,0,0.0,0.0,100,99.99,,,-99.99,,2013-08-11 11:24:00,
2013-08-11 07:36:00,73.0,73.0,30.13,North,0,0.0,0.0,100,99.99,,,-99.99,,2013-08-11 11:36:00,
2013-08-11 07:47:00,73.0,73.0,30.13,North,0,0.0,0.0,100,99.99,,,-99.99,,2013-08-11 11:47:00,
2013-08-11 07:56:00,73.0,73.0,30.13,North,0,0.0,0.0,100,99.99,,,-99.99,,2013-08-11 11:56:00,
2013-08-11 08:06:00,74.0,74.0,30.14,North,0,0.0,0.0,100,99.99,,,-99.99,,2013-08-11 12:06:00,
2013-08-11 08:29:00,76.0,76.0,30.14,North,0,0.0,0.0,100,99.99,,,-99.99,,2013-08-11 12:29:00,
2013-08-11 08:36:00,77.0,77.0,30.14,SE,131,0.0,4.0,100,99.99,,,-99.99,,2013-08-11 12:36:00,
2013-08-11 08:45:00,77.0,77.0,30.14,SE,129,0.0,3.0,100,99.99,,,-99.99,,2013-08-11 12:45:00,
2013-08-11 08:54:00,78.0,78.0,30.14,ESE,105,1.0,4.0,100,99.99,,,-99.99,,2013-08-11 12:54:00,
2013-08-11 09:06:00,78.0,78.0,30.15,SE,136,0.0,2.0,100,99.99,,,-99.99,,2013-08-11 13:06:00,
2013-08-11 09:16:00,78.0,78.0,30.14,SE,143,1.0,3.0,100,99.99,,,-99.99,,2013-08-11 13:16:00,
2013-08-11 09:25:00,79.0,79.0,30.15,South,170,1.0,4.0,100,99.99,,,-99.99,,2013-08-11 13:25:00,
2013-08-11 09:39:00,79.0,79.0,30.15,SSE,155,2.0,7.0,100,99.99,,,-99.99,,2013-08-11 13:39:00,
2013-08-11 09:45:00,81.0,81.0,30.14,SSE,159,2.0,7.0,100,99.99,,,-99.99,,2013-08-11 13:45:00,
2013-08-11 09:55:00,83.0,80.0,30.15,SSE,165,4.0,7.0,90,99.99,,,-99.99,,2013-08-11 13:55:00,
2013-08-11 10:24:00,86.0,75.0,30.15,SSE,155,4.0,9.0,69,99.99,,,-99.99,,2013-08-11 14:24:00,
2013-08-11 10:34:00,87.0,75.0,30.15,SSW,193,4.0,8.0,68,99.99,,,-99.99,,2013-08-11 14:34:00,
2013-08-11 10:47:00,87.0,73.0,30.15,ESE,115,4.0,9.0,63,99.99,,,-99.99,,2013-08-11 14:47:00,
2013-08-11 10:56:00,87.0,73.0,30.16,SSE,158,4.0,8.0,63,99.99,,,-99.99,,2013-08-11 14:56:00,
2013-08-11 11:07:00,87.0,73.0,30.15,SE,138,4.0,7.0,64,99.99,,,-99.99,,2013-08-11 15:07:00,
2013-08-11 11:14:00,87.0,72.0,30.15,SSE,152,4.0,7.0,62,99.99,,,-99.99,,2013-08-11 15:14:00,
2013-08-11 11:24:00,87.0,72.0,30.15,SSE,152,4.0,7.0,62,99.99,,,-99.99,,2013-08-11 15:24:00,
2013-08-11 11:38:00,88.0,71.0,30.15,East,98,6.0,10.0,58,99.99,,,-99.99,,2013-08-11 15:38:00,
2013-08-11 11:48:00,89.0,73.0,30.15,SSE,152,3.0,7.0,59,99.99,,,-99.99,,2013-08-11 15:48:00,
2013-08-11 11:57:00,89.0,72.0,30.15,SSE,149,4.0,8.0,57,99.99,,,-99.99,,2013-08-11 15:57:00,
2013-08-11 12:09:00,89.0,73.0,30.15,SSE,150,2.0,6.0,59,99.99,,,-99.99,,2013-08-11 16:09:00,
2013-08-11 12:28:00,90.0,72.0,30.14,South,176,3.0,7.0,56,99.99,,,-99.99,,2013-08-11 16:28:00,
2013-08-11 12:39:00,91.0,73.0,30.14,SSE,150,1.0,5.0,55,99.99,,,-99.99,,2013-08-11 16:39:00,
2013-08-11 12:46:00,91.0,72.0,30.14,SE,128,3.0,8.0,54,99.99,,,-99.99,,2013-08-11 16:46:00,
2013-08-11 12:55:00,91.0,71.0,30.14,ESE,122,4.0,9.0,53,99.99,,,-99.99,,2013-08-11 16:55:00,
2013-08-11 13:08:00,91.0,71.0,30.14,SSE,156,3.0,9.0,52,99.99,,,-99.99,,2013-08-11 17:08:00,
2013-08-11 13:13:00,92.0,71.0,30.14,SSE,159,2.0,7.0,51,99.99,,,-99.99,,2013-08-11 17:13:00,
2013-08-11 13:25:00,93.0,72.0,30.14,SE,134,4.0,9.0,50,99.99,,,-99.99,,2013-08-11 17:25:00,
2013-08-11 13:45:00,91.0,71.0,30.13,ESE,110,5.0,9.0,52,99.99,,,-99.99,,2013-08-11 17:45:00,
2013-08-11 13:54:00,91.0,71.0,30.13,ESE,115,3.0,7.0,53,99.99,,,-99.99,,2013-08-11 17:54:00,
2013-08-11 14:06:00,92.0,71.0,30.13,SE,138,3.0,9.0,50,99.99,,,-99.99,,2013-08-11 18:06:00,
2013-08-11 14:17:00,94.0,71.0,30.12,ESE,104,4.0,8.0,47,99.99,,,-99.99,,2013-08-11 18:17:00,
2013-08-11 14:27:00,94.0,70.0,30.12,East,91,5.0,9.0,46,99.99,,,-99.99,,2013-08-11 18:27:00,
2013-08-11 14:47:00,94.0,69.0,30.11,SSW,193,5.0,11.0,44,99.99,,,-99.99,,2013-08-11 18:47:00,
2013-08-11 14:54:00,94.0,70.0,30.11,East,97,2.0,7.0,46,99.99,,,-99.99,,2013-08-11 18:54:00,
2013-08-11 15:08:00,94.0,69.0,30.11,East,98,5.0,10.0,44,99.99,,,-99.99,,2013-08-11 19:08:00,
2013-08-11 15:25:00,97.0,68.0,30.11,South,181,4.0,10.0,39,99.99,,,-99.99,,2013-08-11 19:25:00,
2013-08-11 15:33:00,97.0,69.0,30.10,East,101,2.0,9.0,40,99.99,,,-99.99,,2013-08-11 19:33:00,
2013-08-11 15:49:00,97.0,71.0,30.09,ESE,111,4.0,10.0,44,99.99,,,-99.99,,2013-08-11 19:49:00,
2013-08-11 15:56:00,95.0,68.0,30.09,ESE,111,5.0,10.0,41,99.99,,,-99.99,,2013-08-11 19:56:00,
2013-08-11 16:06:00,96.0,70.0,30.08,ESE,110,2.0,5.0,43,99.99,,,-99.99,,2013-08-11 20:06:00,
2013-08-11 16:18:00,95.0,70.0,30.08,ESE,122,3.0,8.0,44,99.99,,,-99.99,,2013-08-11 20:18:00,
2013-08-11 16:28:00,95.0,68.0,30.08,ESE,121,3.0,6.0,42,99.99,,,-99.99,,2013-08-11 20:28:00,
2013-08-11 16:38:00,94.0,69.0,30.08,ESE,108,4.0,9.0,45,99.99,,,-99.99,,2013-08-11 20:38:00,
2013-08-11 16:47:00,95.0,69.0,30.07,SE,146,4.0,6.0,43,99.99,,,-99.99,,2013-08-11 20:47:00,
2013-08-11 17:07:00,96.0,71.0,30.07,SE,127,4.0,8.0,44,99.99,,,-99.99,,2013-08-11 21:07:00,
2013-08-11 17:13:00,94.0,70.0,30.06,SE,134,2.0,5.0,46,99.99,,,-99.99,,2013-08-11 21:13:00,
2013-08-11 17:27:00,94.0,69.0,30.06,ESE,118,4.0,8.0,45,99.99,,,-99.99,,2013-08-11 21:27:00,
2013-08-11 17:34:00,94.0,70.0,30.06,East,90,2.0,6.0,46,99.99,,,-99.99,,2013-08-11 21:34:00,
2013-08-11 17:46:00,94.0,70.0,30.06,SSW,198,2.0,5.0,46,99.99,,,-99.99,,2013-08-11 21:46:00,
2013-08-11 17:54:00,94.0,71.0,30.06,East,98,5.0,11.0,47,99.99,,,-99.99,,2013-08-11 21:54:00,
2013-08-11 18:04:00,93.0,71.0,30.06,ESE,110,1.0,5.0,49,99.99,,,-99.99,,2013-08-11 22:04:00,
2013-08-11 18:25:00,92.0,71.0,30.06,SE,124,7.0,13.0,51,99.99,,,-99.99,,2013-08-11 22:25:00,
2013-08-11 18:35:00,91.0,73.0,30.06,ESE,114,7.0,16.0,55,99.99,,,-99.99,,2013-08-11 22:35:00,
2013-08-11 18:46:00,91.0,74.0,30.06,ESE,110,6.0,12.0,57,99.99,,,-99.99,,2013-08-11 22:46:00,
2013-08-11 18:55:00,90.0,73.0,30.06,ESE,113,6.0,12.0,58,99.99,,,-99.99,,2013-08-11 22:55:00,
2013-08-11 19:16:00,89.0,73.0,30.06,ESE,105,7.0,13.0,60,99.99,,,-99.99,,2013-08-11 23:16:00,
2013-08-11 19:28:00,89.0,73.0,30.07,SE,125,7.0,12.0,60,99.99,,,-99.99,,2013-08-11 23:28:00,
2013-08-11 19:35:00,88.0,73.0,30.07,ESE,111,7.0,12.0,61,99.99,,,-99.99,,2013-08-11 23:35:00,
2013-08-11 19:47:00,87.0,72.0,30.07,ESE,105,7.0,13.0,62,99.99,,,-99.99,,2013-08-11 23:47:00,
2013-08-11 19:56:00,87.0,73.0,30.07,SE,129,6.0,13.0,64,99.99,,,-99.99,,2013-08-11 23:56:00,
2013-08-11 20:16:00,86.0,73.0,30.08,SE,141,5.0,10.0,66,99.99,,,-99.99,,2013-08-12 00:16:00,
2013-08-11 20:37:00,84.0,72.0,30.08,ESE,107,5.0,10.0,68,99.99,,,-99.99,,2013-08-12 00:37:00,
2013-08-11 20:48:00,84.0,73.0,30.09,ESE,108,5.0,9.0,69,99.99,,,-99.99,,2013-08-12 00:48:00,
2013-08-11 20:54:00,84.0,73.0,30.09,ESE,120,3.0,8.0,69,99.99,,,-99.99,,2013-08-12 00:54:00,
2013-08-11 21:08:00,83.0,72.0,30.09,ESE,113,4.0,7.0,69,99.99,,,-99.99,,2013-08-12 01:08:00,
2013-08-11 21:14:00,82.0,72.0,30.10,ESE,118,3.0,7.0,71,99.99,,,-99.99,,2013-08-12 01:14:00,
2013-08-11 21:25:00,82.0,72.0,30.10,ESE,108,3.0,6.0,71,99.99,,,-99.99,,2013-08-12 01:25:00,
2013-08-11 21:37:00,81.0,71.0,30.10,ESE,108,1.0,3.0,72,99.99,,,-99.99,,2013-08-12 01:37:00,
2013-08-11 21:46:00,81.0,72.0,30.11,SE,129,4.0,6.0,74,99.99,,,-99.99,,2013-08-12 01:46:00,
2013-08-11 21:55:00,81.0,72.0,30.11,ESE,108,3.0,5.0,75,99.99,,,-99.99,,2013-08-12 01:55:00,
2013-08-11 22:08:00,81.0,72.0,30.11,ESE,108,3.0,5.0,75,99.99,,,-99.99,,2013-08-12 02:08:00,
2013-08-11 22:14:00,80.0,72.0,30.11,ESE,121,4.0,7.0,77,99.99,,,-99.99,,2013-08-12 02:14:00,
2013-08-11 22:35:00,79.0,72.0,30.12,ESE,108,1.0,4.0,79,99.99,,,-99.99,,2013-08-12 02:35:00,
2013-08-11 22:47:00,79.0,72.0,30.12,ENE,66,0.0,1.0,80,99.99,,,-99.99,,2013-08-12 02:47:00,
2013-08-11 22:55:00,79.0,73.0,30.13,SSE,150,2.0,4.0,82,99.99,,,-99.99,,2013-08-12 02:55:00,
2013-08-11 23:15:00,78.0,73.0,30.13,ESE,113,1.0,4.0,86,99.99,,,-99.99,,2013-08-12 03:15:00,
2013-08-11 23:25:00,78.0,74.0,30.13,SE,145,1.0,3.0,88,99.99,,,-99.99,,2013-08-12 03:25:00,
2013-08-11 23:38:00,78.0,74.0,30.13,SE,145,1.0,3.0,88,99.99,,,-99.99,,2013-08-12 03:38:00,
2013-08-11 23:45:00,78.0,75.0,30.13,North,0,0.0,0.0,90,99.99,,,-99.99,,2013-08-12 03:45:00,
2013-08-11 23:56:00,77.0,74.0,30.13,North,0,0.0,0.0,91,99.99,,,-99.99,,2013-08-12 03:56:00,